Time;durP1;ratioP1;P1;durP2;ratioP2;P2;SDS_P1;SDS_P2;PMS_P1;PMS_P2;Temp;Humidity;BMP_temperature;BMP_pressure;BME280_temperature;BME280_humidity;BME280_pressure;Samples;Min_cycle;Max_cycle;Signal;HPM_P1;HPM_P2
2024/04/06 00:01:00;;;;;;;8.50;4.82;;;;;;;;;;2057292;28;20026;-78
2024/04/06 00:02:19;;;;;;;12.70;5.43;;;;;;;;;;2055333;28;20057;-78
2024/04/06 00:03:38;;;;;;;6.68;4.47;;;;;;;;;;2052702;28;20495;-78
2024/04/06 00:04:57;;;;;;;12.32;4.70;;;;;;;;;;2045988;28;20035;-78
2024/04/06 00:06:16;;;;;;;7.07;4.65;;;;;;;;;;2041285;28;20035;-78
2024/04/06 00:07:35;;;;;;;6.82;4.68;;;;;;;;;;2043566;28;20031;-78
2024/04/06 00:08:54;;;;;;;6.40;4.55;;;;;;;;;;2051032;28;20031;-79
2024/04/06 00:10:13;;;;;;;5.53;4.38;;;;;;;;;;2045734;28;20035;-79
2024/04/06 00:11:32;;;;;;;6.53;4.80;;;;;;;;;;2041692;28;20038;-78
2024/04/06 00:12:51;;;;;;;8.77;4.78;;;;;;;;;;2042905;28;20031;-78
2024/04/06 00:14:10;;;;;;;7.03;4.65;;;;;;;;;;2045507;28;20035;-78
2024/04/06 00:15:29;;;;;;;5.63;4.50;;;;;;;;;;2047437;28;20031;-79
2024/04/06 00:16:48;;;;;;;8.00;4.57;;;;;;;;;;2053791;28;20054;-78
2024/04/06 00:18:07;;;;;;;13.10;4.63;;;;;;;;;;2054671;28;20034;-78
2024/04/06 00:19:26;;;;;;;8.00;4.85;;;;;;;;;;2050333;28;20031;-78
2024/04/06 00:20:45;;;;;;;9.60;4.75;;;;;;;;;;2044899;28;20039;-78
2024/04/06 00:22:04;;;;;;;7.75;4.65;;;;;;;;;;2039953;28;20039;-78
2024/04/06 00:23:22;;;;;;;6.00;5.25;;;;;;;;;;2050028;28;20046;-78
2024/04/06 00:24:41;;;;;;;6.90;4.70;;;;;;;;;;2053040;28;20022;-78
2024/04/06 00:26:01;;;;;;;6.60;4.50;;;;;;;;;;2053807;28;20027;-78
2024/04/06 00:27:20;;;;;;;5.63;4.63;;;;;;;;;;2046039;28;20119;-78
2024/04/06 00:28:39;;;;;;;7.80;4.45;;;;;;;;;;2046227;28;20027;-78
2024/04/06 00:29:58;;;;;;;5.28;4.78;;;;;;;;;;2050012;28;20555;-78
2024/04/06 00:31:17;;;;;;;4.85;4.45;;;;;;;;;;2044422;28;20038;-78
2024/04/06 00:32:36;;;;;;;4.90;4.40;;;;;;;;;;2039150;28;20027;-78
2024/04/06 00:34:01;;;;;;;4.68;4.20;;;;;;;;;;2050409;28;20275;-78
2024/04/06 00:35:20;;;;;;;4.40;4.00;;;;;;;;;;2045061;28;20027;-78
2024/04/06 00:36:39;;;;;;;5.60;4.80;;;;;;;;;;2050392;28;20106;-79
2024/04/06 00:37:58;;;;;;;4.63;4.22;;;;;;;;;;2052799;28;20034;-78
2024/04/06 00:39:17;;;;;;;4.22;3.83;;;;;;;;;;2044795;28;20034;-78
2024/04/06 00:40:36;;;;;;;4.85;4.30;;;;;;;;;;2048847;28;20039;-78
2024/04/06 00:41:55;;;;;;;4.80;4.40;;;;;;;;;;2052136;28;20031;-78
2024/04/06 00:43:14;;;;;;;4.15;3.75;;;;;;;;;;2044447;28;20043;-78
2024/04/06 00:44:33;;;;;;;5.28;4.55;;;;;;;;;;2046275;28;20500;-78
2024/04/06 00:45:52;;;;;;;4.72;4.32;;;;;;;;;;2049539;28;20042;-78
2024/04/06 00:47:11;;;;;;;5.05;4.30;;;;;;;;;;2045369;28;20429;-78
2024/04/06 00:48:30;;;;;;;4.75;4.35;;;;;;;;;;2050393;28;20106;-78
2024/04/06 00:49:49;;;;;;;4.40;4.00;;;;;;;;;;2053529;28;20749;-78
2024/04/06 00:51:08;;;;;;;4.30;3.88;;;;;;;;;;2045242;28;20189;-78
2024/04/06 00:52:27;;;;;;;4.38;3.97;;;;;;;;;;2042128;28;20118;-78
2024/04/06 00:53:46;;;;;;;4.57;4.18;;;;;;;;;;2050528;28;20031;-78
2024/04/06 00:55:05;;;;;;;4.75;4.28;;;;;;;;;;2052783;28;20073;-78
2024/04/06 00:56:26;;;;;;;6.53;4.63;;;;;;;;;;2046227;28;20023;-78
2024/04/06 00:57:46;;;;;;;5.20;4.70;;;;;;;;;;2051092;28;20519;-79
2024/04/06 00:59:05;;;;;;;4.47;4.07;;;;;;;;;;2042823;28;20110;-79
2024/04/06 01:00:24;;;;;;;4.75;4.35;;;;;;;;;;2049331;28;20035;-79
2024/04/06 01:01:45;;;;;;;5.38;4.88;;;;;;;;;;2045259;28;20606;-78
2024/04/06 01:03:04;;;;;;;4.50;4.10;;;;;;;;;;2049326;28;20030;-79
2024/04/06 01:04:23;;;;;;;4.47;4.07;;;;;;;;;;2043943;28;20047;-78
2024/04/06 01:05:45;;;;;;;4.90;4.50;;;;;;;;;;2048901;28;20396;-78
2024/04/06 01:07:04;;;;;;;5.65;5.15;;;;;;;;;;2050797;28;20443;-78
2024/04/06 01:08:23;;;;;;;5.85;4.35;;;;;;;;;;2044372;28;20027;-78
2024/04/06 01:09:42;;;;;;;4.78;4.38;;;;;;;;;;2041511;28;20027;-78
2024/04/06 01:11:00;;;;;;;4.78;4.38;;;;;;;;;;2044180;28;20051;-78
2024/04/06 01:12:21;;;;;;;5.45;4.95;;;;;;;;;;2048608;28;20069;-78
2024/04/06 01:13:40;;;;;;;6.38;5.00;;;;;;;;;;2044833;28;20035;-78
2024/04/06 01:14:59;;;;;;;5.88;4.75;;;;;;;;;;2043828;28;20488;-77
2024/04/06 01:16:18;;;;;;;5.32;4.70;;;;;;;;;;2045790;28;20260;-78
2024/04/06 01:17:37;;;;;;;5.47;4.90;;;;;;;;;;2049967;28;20499;-79
2024/04/06 01:18:56;;;;;;;5.32;4.88;;;;;;;;;;2043796;28;20043;-79
2024/04/06 01:20:15;;;;;;;5.47;4.97;;;;;;;;;;2040147;28;20599;-78
2024/04/06 01:21:34;;;;;;;5.70;4.38;;;;;;;;;;2040946;28;20043;-78
2024/04/06 01:22:53;;;;;;;5.18;4.65;;;;;;;;;;2047895;28;20500;-79
2024/04/06 01:24:41;;;;;;;6.03;5.10;;;;;;;;;;2045339;28;20039;-78
2024/04/06 01:26:01;;;;;;;5.40;5.00;;;;;;;;;;2038876;28;20031;-79
2024/04/06 01:27:20;;;;;;;5.63;4.97;;;;;;;;;;2048368;28;20130;-78
2024/04/06 01:28:41;;;;;;;5.50;5.00;;;;;;;;;;2052930;28;20027;-78
2024/04/06 01:30:00;;;;;;;5.55;5.03;;;;;;;;;;2052129;28;20070;-79
2024/04/06 01:31:19;;;;;;;6.15;5.53;;;;;;;;;;2053140;28;20038;-79
2024/04/06 01:32:44;;;;;;;5.82;5.32;;;;;;;;;;2053204;28;20551;-79
2024/04/06 01:34:03;;;;;;;6.15;5.55;;;;;;;;;;2053315;28;20066;-79
2024/04/06 01:35:22;;;;;;;5.82;5.32;;;;;;;;;;2050440;28;20071;-79
2024/04/06 01:36:41;;;;;;;7.20;5.30;;;;;;;;;;2054030;28;20031;-79
2024/04/06 01:38:00;;;;;;;5.38;4.88;;;;;;;;;;2045929;28;20051;-78
2024/04/06 01:39:19;;;;;;;6.55;5.00;;;;;;;;;;2041760;28;20062;-79
2024/04/06 01:40:38;;;;;;;5.63;4.72;;;;;;;;;;2041361;28;20039;-78
2024/04/06 01:41:58;;;;;;;5.82;4.82;;;;;;;;;;2040576;28;20019;-79
2024/04/06 01:43:17;;;;;;;5.40;4.90;;;;;;;;;;2048281;28;20615;-78
2024/04/06 01:44:36;;;;;;;5.30;4.80;;;;;;;;;;2052247;28;20031;-78
2024/04/06 01:45:55;;;;;;;5.22;4.82;;;;;;;;;;2050377;28;20491;-78
2024/04/06 01:47:14;;;;;;;4.30;3.95;;;;;;;;;;2052887;28;20031;-79
2024/04/06 01:48:32;;;;;;;4.47;4.00;;;;;;;;;;2044157;28;20769;-78
2024/04/06 01:49:51;;;;;;;5.22;4.30;;;;;;;;;;2048326;28;20500;-79
2024/04/06 01:51:10;;;;;;;4.95;4.55;;;;;;;;;;2052173;28;20031;-79
2024/04/06 01:52:29;;;;;;;5.57;3.97;;;;;;;;;;2044646;28;20097;-79
2024/04/06 01:53:48;;;;;;;4.72;4.32;;;;;;;;;;2039748;28;20070;-79
2024/04/06 01:55:07;;;;;;;5.35;4.82;;;;;;;;;;2049664;28;20492;-79
2024/04/06 01:56:26;;;;;;;5.05;4.63;;;;;;;;;;2052878;28;20117;-80
2024/04/06 01:57:45;;;;;;;4.80;4.40;;;;;;;;;;2045317;28;20028;-79
2024/04/06 01:59:04;;;;;;;4.38;3.97;;;;;;;;;;2049218;28;20540;-80
2024/04/06 02:00:23;;;;;;;4.30;3.90;;;;;;;;;;2052327;28;20117;-79
2024/04/06 02:01:43;;;;;;;4.03;3.72;;;;;;;;;;2044357;28;20020;-79
2024/04/06 02:03:04;;;;;;;4.07;3.78;;;;;;;;;;2050002;28;20050;-79
2024/04/06 02:04:23;;;;;;;4.72;4.07;;;;;;;;;;2052198;28;20034;-79
2024/04/06 02:05:42;;;;;;;4.10;3.80;;;;;;;;;;2043929;28;20118;-80
2024/04/06 02:07:01;;;;;;;4.30;4.00;;;;;;;;;;2048738;28;20030;-80
2024/04/06 02:08:20;;;;;;;4.47;4.07;;;;;;;;;;2043574;28;20063;-79
2024/04/06 02:09:39;;;;;;;4.15;3.85;;;;;;;;;;2042472;28;20520;-79
2024/04/06 02:10:58;;;;;;;3.72;3.42;;;;;;;;;;2049811;28;20026;-79
2024/04/06 02:12:17;;;;;;;4.22;3.92;;;;;;;;;;2044801;28;20023;-79
2024/04/06 02:13:36;;;;;;;3.40;3.10;;;;;;;;;;2044830;28;20059;-79
2024/04/06 02:14:58;;;;;;;3.22;3.03;;;;;;;;;;2049081;28;20736;-79
2024/04/06 02:16:17;;;;;;;4.18;3.17;;;;;;;;;;2042695;28;20035;-79
2024/04/06 02:17:37;;;;;;;3.63;3.33;;;;;;;;;;2041309;28;20024;-79
2024/04/06 02:18:56;;;;;;;3.40;3.10;;;;;;;;;;2042265;28;20035;-79
2024/04/06 02:20:15;;;;;;;2.88;2.67;;;;;;;;;;2049819;28;20544;-79
2024/04/06 02:21:35;;;;;;;2.78;2.58;;;;;;;;;;2053519;28;20019;-78
2024/04/06 02:22:54;;;;;;;3.05;2.83;;;;;;;;;;2043780;28;20031;-79
2024/04/06 02:24:13;;;;;;;2.60;2.40;;;;;;;;;;2041584;28;20032;-79
2024/04/06 02:25:32;;;;;;;2.42;2.33;;;;;;;;;;2040857;28;20031;-81
2024/04/06 02:26:51;;;;;;;2.72;2.55;;;;;;;;;;2042462;28;20709;-78
2024/04/06 02:28:10;;;;;;;3.75;2.85;;;;;;;;;;2040941;28;20035;-78
2024/04/06 02:29:30;;;;;;;2.38;2.28;;;;;;;;;;2048886;28;20035;-80
2024/04/06 02:30:49;;;;;;;3.00;2.80;;;;;;;;;;2051315;28;20023;-80
2024/04/06 02:32:11;;;;;;;2.88;2.50;;;;;;;;;;2054327;28;20050;-79
2024/04/06 02:33:33;;;;;;;2.50;2.30;;;;;;;;;;2043449;28;21365;-79
2024/04/06 02:34:52;;;;;;;2.65;2.45;;;;;;;;;;2050648;28;20027;-80
2024/04/06 02:36:11;;;;;;;2.20;2.10;;;;;;;;;;2053977;28;20026;-77
2024/04/06 02:37:31;;;;;;;2.30;1.88;;;;;;;;;;2055871;28;20019;-77
2024/04/06 02:38:50;;;;;;;1.77;1.67;;;;;;;;;;2050162;28;20027;-77
2024/04/06 02:40:09;;;;;;;1.42;1.33;;;;;;;;;;2044208;28;20043;-77
2024/04/06 02:41:28;;;;;;;1.63;1.50;;;;;;;;;;2042134;28;20031;-79
2024/04/06 02:42:47;;;;;;;2.40;2.20;;;;;;;;;;2048656;28;20034;-77
2024/04/06 02:44:06;;;;;;;2.80;2.10;;;;;;;;;;2043855;28;20031;-77
2024/04/06 02:45:25;;;;;;;1.95;1.83;;;;;;;;;;2050034;28;20118;-77
2024/04/06 02:46:44;;;;;;;2.70;2.10;;;;;;;;;;2046226;28;20032;-79
2024/04/06 02:48:03;;;;;;;1.85;1.75;;;;;;;;;;2043003;28;20027;-76
2024/04/06 02:49:23;;;;;;;2.00;1.90;;;;;;;;;;2050765;28;20117;-79
2024/04/06 02:50:42;;;;;;;2.33;2.10;;;;;;;;;;2053992;28;20411;-78
2024/04/06 02:52:02;;;;;;;2.30;2.10;;;;;;;;;;2053639;28;20488;-76
2024/04/06 02:53:21;;;;;;;2.08;1.98;;;;;;;;;;2044449;28;20035;-77
2024/04/06 02:54:40;;;;;;;2.25;2.15;;;;;;;;;;2040328;28;20039;-77
2024/04/06 02:55:59;;;;;;;2.47;2.00;;;;;;;;;;2039354;28;20047;-77
2024/04/06 02:57:18;;;;;;;2.25;2.15;;;;;;;;;;2050641;28;20495;-77
2024/04/06 02:58:38;;;;;;;2.53;2.33;;;;;;;;;;2053698;28;21093;-77
2024/04/06 02:59:57;;;;;;;3.33;1.83;;;;;;;;;;2045579;28;20698;-76
2024/04/06 03:01:16;;;;;;;1.98;1.88;;;;;;;;;;2048868;28;20118;-79
2024/04/06 03:02:34;;;;;;;2.35;1.90;;;;;;;;;;2045820;28;20106;-79
2024/04/06 03:03:53;;;;;;;1.92;1.83;;;;;;;;;;2041845;28;20023;-79
2024/04/06 03:05:12;;;;;;;1.85;1.75;;;;;;;;;;2042165;28;20507;-76
2024/04/06 03:06:31;;;;;;;1.90;1.70;;;;;;;;;;2051621;28;20035;-77
2024/04/06 03:07:50;;;;;;;1.92;1.83;;;;;;;;;;2055436;28;20022;-76
2024/04/06 03:09:09;;;;;;;1.98;1.50;;;;;;;;;;2056898;28;20110;-77
2024/04/06 03:10:28;;;;;;;1.83;1.73;;;;;;;;;;2043098;28;20134;-80
2024/04/06 03:11:47;;;;;;;1.60;1.50;;;;;;;;;;2049149;28;20046;-79
2024/04/06 03:13:06;;;;;;;1.38;1.27;;;;;;;;;;2046311;28;20500;-77
2024/04/06 03:14:25;;;;;;;1.42;1.33;;;;;;;;;;2046103;28;20043;-77
2024/04/06 03:15:44;;;;;;;1.50;1.40;;;;;;;;;;2050389;28;20041;-78
2024/04/06 03:17:03;;;;;;;1.35;1.27;;;;;;;;;;2047562;28;20043;-78
2024/04/06 03:18:22;;;;;;;1.38;1.30;;;;;;;;;;2061391;28;20090;-77
2024/04/06 03:19:41;;;;;;;1.58;1.40;;;;;;;;;;2055143;28;20039;-78
2024/04/06 03:21:00;;;;;;;1.50;1.40;;;;;;;;;;2060515;28;20035;-78
2024/04/06 03:22:19;;;;;;;1.50;1.40;;;;;;;;;;2054993;28;20054;-77
2024/04/06 03:23:38;;;;;;;1.52;1.42;;;;;;;;;;2061488;28;20015;-77
2024/04/06 03:24:57;;;;;;;1.48;1.38;;;;;;;;;;2055484;28;20160;-78
2024/04/06 03:26:16;;;;;;;1.40;1.10;;;;;;;;;;2051403;28;20047;-77
2024/04/06 03:27:35;;;;;;;1.80;1.70;;;;;;;;;;2059903;28;20098;-78
2024/04/06 03:28:54;;;;;;;1.30;1.20;;;;;;;;;;2054401;28;20031;-77
2024/04/06 03:30:13;;;;;;;1.52;1.42;;;;;;;;;;2051161;28;20869;-77
2024/04/06 03:31:32;;;;;;;1.40;1.30;;;;;;;;;;2046002;28;20043;-77
2024/04/06 03:32:52;;;;;;;1.35;1.25;;;;;;;;;;2050699;28;20118;-77
2024/04/06 03:34:11;;;;;;;1.20;1.20;;;;;;;;;;2046265;28;20027;-77
2024/04/06 03:35:31;;;;;;;1.10;1.00;;;;;;;;;;2050863;28;20038;-77
2024/04/06 03:36:50;;;;;;;1.27;1.17;;;;;;;;;;2054613;28;20034;-77
2024/04/06 03:38:09;;;;;;;1.08;1.08;;;;;;;;;;2053154;28;20063;-77
2024/04/06 03:39:28;;;;;;;0.98;0.98;;;;;;;;;;2046352;28;20035;-79
2024/04/06 03:40:47;;;;;;;1.40;1.30;;;;;;;;;;2045674;28;20039;-79
2024/04/06 03:42:06;;;;;;;1.00;1.00;;;;;;;;;;2051148;28;20131;-79
2024/04/06 03:43:25;;;;;;;1.13;1.02;;;;;;;;;;2053997;28;20027;-79
2024/04/06 03:44:44;;;;;;;0.88;0.88;;;;;;;;;;2046532;28;20056;-79
2024/04/06 03:46:03;;;;;;;1.10;1.10;;;;;;;;;;2041609;28;20035;-79
2024/04/06 03:47:22;;;;;;;1.10;1.10;;;;;;;;;;2043838;28;20031;-79
2024/04/06 03:48:41;;;;;;;1.88;1.02;;;;;;;;;;2049950;28;21851;-79
2024/04/06 03:50:00;;;;;;;0.95;0.95;;;;;;;;;;2055701;28;20039;-79
2024/04/06 03:51:19;;;;;;;1.17;1.17;;;;;;;;;;2053394;28;20039;-78
2024/04/06 03:52:38;;;;;;;1.10;1.10;;;;;;;;;;2056155;28;20034;-79
2024/04/06 03:53:57;;;;;;;1.90;1.35;;;;;;;;;;2054405;28;21365;-79
2024/04/06 03:55:16;;;;;;;1.15;1.10;;;;;;;;;;2045874;28;20028;-79
2024/04/06 03:56:35;;;;;;;1.20;1.10;;;;;;;;;;2049688;28;20117;-79
2024/04/06 03:57:54;;;;;;;2.75;1.50;;;;;;;;;;2055330;28;20031;-79
2024/04/06 03:59:14;;;;;;;1.60;1.27;;;;;;;;;;2053464;28;20113;-79
2024/04/06 04:00:33;;;;;;;1.30;1.20;;;;;;;;;;2049471;28;20023;-79
2024/04/06 04:01:51;;;;;;;1.35;1.25;;;;;;;;;;2049693;28;20027;-79
2024/04/06 04:03:10;;;;;;;1.65;1.55;;;;;;;;;;2053709;28;20388;-79
2024/04/06 04:04:29;;;;;;;1.50;1.40;;;;;;;;;;2044041;28;20027;-79
2024/04/06 04:05:49;;;;;;;1.50;1.40;;;;;;;;;;2040745;28;20027;-79
2024/04/06 04:07:08;;;;;;;1.83;1.73;;;;;;;;;;2048913;28;20035;-79
2024/04/06 04:08:26;;;;;;;1.55;1.45;;;;;;;;;;2053926;28;20026;-79
2024/04/06 04:09:45;;;;;;;1.52;1.38;;;;;;;;;;2043030;28;20656;-78
2024/04/06 04:11:04;;;;;;;1.58;1.48;;;;;;;;;;2042450;28;20121;-79
2024/04/06 04:12:23;;;;;;;1.73;1.63;;;;;;;;;;2041148;28;20035;-79
2024/04/06 04:13:42;;;;;;;1.40;1.30;;;;;;;;;;2043793;28;20030;-79
2024/04/06 04:15:02;;;;;;;1.50;1.40;;;;;;;;;;2050583;28;20043;-79
2024/04/06 04:16:21;;;;;;;1.60;1.50;;;;;;;;;;2053813;28;20035;-79
2024/04/06 04:17:40;;;;;;;1.35;1.30;;;;;;;;;;2052980;28;20383;-79
2024/04/06 04:18:59;;;;;;;1.60;1.50;;;;;;;;;;2046379;28;20595;-79
2024/04/06 04:20:18;;;;;;;1.77;1.67;;;;;;;;;;2045256;28;20639;-80
2024/04/06 04:21:38;;;;;;;1.70;1.50;;;;;;;;;;2041889;28;20019;-78
2024/04/06 04:22:57;;;;;;;1.80;1.70;;;;;;;;;;2049653;28;20070;-80
2024/04/06 04:24:17;;;;;;;1.10;1.10;;;;;;;;;;2054642;28;20026;-80
2024/04/06 04:25:36;;;;;;;1.40;1.30;;;;;;;;;;2045560;28;20031;-80
2024/04/06 04:26:55;;;;;;;1.67;1.58;;;;;;;;;;2042937;28;20027;-79
2024/04/06 04:28:14;;;;;;;1.45;1.35;;;;;;;;;;2041808;28;20450;-79
2024/04/06 04:29:33;;;;;;;1.50;1.40;;;;;;;;;;2041802;28;20036;-80
2024/04/06 04:30:52;;;;;;;1.38;1.33;;;;;;;;;;2049887;28;22044;-79
2024/04/06 04:32:11;;;;;;;1.40;1.33;;;;;;;;;;2054474;28;20393;-81
2024/04/06 04:33:30;;;;;;;1.88;1.50;;;;;;;;;;2053090;28;20031;-80
2024/04/06 04:34:49;;;;;;;1.50;1.40;;;;;;;;;;2053674;28;20039;-80
2024/04/06 04:36:09;;;;;;;1.55;1.45;;;;;;;;;;2052953;28;20031;-80
2024/04/06 04:37:28;;;;;;;1.40;1.30;;;;;;;;;;2053112;28;20043;-80
2024/04/06 04:38:48;;;;;;;1.08;1.08;;;;;;;;;;2054755;28;20031;-80
2024/04/06 04:40:08;;;;;;;1.30;1.20;;;;;;;;;;2044872;28;20067;-79
2024/04/06 04:41:27;;;;;;;1.10;1.10;;;;;;;;;;2050306;28;20030;-80
2024/04/06 04:42:46;;;;;;;1.15;0.95;;;;;;;;;;2054691;28;20027;-80
2024/04/06 04:44:05;;;;;;;1.00;1.00;;;;;;;;;;2043758;28;20047;-80
2024/04/06 04:45:25;;;;;;;1.10;1.10;;;;;;;;;;2049926;28;20027;-79
2024/04/06 04:46:44;;;;;;;1.15;1.10;;;;;;;;;;2052956;28;20392;-79
2024/04/06 04:48:03;;;;;;;0.95;0.95;;;;;;;;;;2054271;28;20102;-80
2024/04/06 04:49:22;;;;;;;0.95;0.93;;;;;;;;;;2053590;28;20031;-80
2024/04/06 04:50:41;;;;;;;1.20;1.10;;;;;;;;;;2044937;28;21160;-79
2024/04/06 04:51:59;;;;;;;1.02;1.02;;;;;;;;;;2041571;28;20143;-80
2024/04/06 04:53:19;;;;;;;1.00;1.00;;;;;;;;;;2050261;28;20047;-80
2024/04/06 04:54:38;;;;;;;1.15;1.05;;;;;;;;;;2053767;28;20121;-79
2024/04/06 04:55:57;;;;;;;1.25;1.20;;;;;;;;;;2044882;28;20106;-79
2024/04/06 04:57:16;;;;;;;1.25;1.15;;;;;;;;;;2046133;28;20537;-79
2024/04/06 04:58:35;;;;;;;0.70;0.70;;;;;;;;;;2050295;28;20043;-79
2024/04/06 04:59:54;;;;;;;1.05;0.95;;;;;;;;;;2053099;28;20030;-78
2024/04/06 05:01:16;;;;;;;1.08;0.98;;;;;;;;;;2053505;28;20027;-78
2024/04/06 05:02:35;;;;;;;1.92;1.10;;;;;;;;;;2053287;28;20067;-78
2024/04/06 05:03:54;;;;;;;1.20;1.10;;;;;;;;;;2052877;28;20023;-78
2024/04/06 05:05:13;;;;;;;0.93;0.93;;;;;;;;;;2053996;28;20091;-80
2024/04/06 05:06:32;;;;;;;0.82;0.82;;;;;;;;;;2054060;28;20042;-79
2024/04/06 05:07:50;;;;;;;0.90;0.90;;;;;;;;;;2053923;28;20472;-79
2024/04/06 05:09:10;;;;;;;0.73;0.73;;;;;;;;;;2052558;28;20038;-79
2024/04/06 05:10:29;;;;;;;1.20;0.75;;;;;;;;;;2045694;28;20415;-79
2024/04/06 05:11:48;;;;;;;0.82;0.80;;;;;;;;;;2042709;28;20040;-79
2024/04/06 05:13:07;;;;;;;0.60;0.60;;;;;;;;;;2049166;28;20035;-80
2024/04/06 05:14:28;;;;;;;1.45;0.77;;;;;;;;;;2053956;28;20035;-79
2024/04/06 05:15:50;;;;;;;1.85;0.93;;;;;;;;;;2042209;28;20035;-79
2024/04/06 05:17:09;;;;;;;;;;;;;;;;;;2051243;28;20054;-79
2024/04/06 05:18:28;;;;;;;0.70;0.70;;;;;;;;;;2051095;28;19922;-79
2024/04/06 05:19:47;;;;;;;0.80;0.80;;;;;;;;;;2051756;28;21036;-79
2024/04/06 05:21:06;;;;;;;1.88;0.82;;;;;;;;;;2053584;28;20074;-79
2024/04/06 05:22:25;;;;;;;0.63;0.63;;;;;;;;;;2047241;28;20468;-79
2024/04/06 05:23:44;;;;;;;0.60;0.60;;;;;;;;;;2041446;28;20050;-79
2024/04/06 05:25:03;;;;;;;0.88;0.88;;;;;;;;;;2048293;28;20051;-79
2024/04/06 05:26:22;;;;;;;0.75;0.75;;;;;;;;;;2053241;28;20499;-79
2024/04/06 05:27:41;;;;;;;0.70;0.70;;;;;;;;;;2054444;28;20031;-79
2024/04/06 05:29:00;;;;;;;0.80;0.80;;;;;;;;;;2045280;28;20438;-79
2024/04/06 05:30:19;;;;;;;0.85;0.82;;;;;;;;;;2051345;28;21553;-78
2024/04/06 05:31:39;;;;;;;1.60;0.80;;;;;;;;;;2052992;28;20058;-78
2024/04/06 05:32:58;;;;;;;0.90;0.90;;;;;;;;;;2053605;28;20031;-79
2024/04/06 05:34:18;;;;;;;1.08;0.80;;;;;;;;;;2053180;28;20030;-78
2024/04/06 05:35:37;;;;;;;0.90;0.80;;;;;;;;;;2053527;28;20520;-79
2024/04/06 05:36:56;;;;;;;9.63;1.42;;;;;;;;;;2052698;28;20066;-79
2024/04/06 05:38:15;;;;;;;0.88;0.88;;;;;;;;;;2043211;28;20725;-79
2024/04/06 05:39:35;;;;;;;1.20;0.82;;;;;;;;;;2050844;28;20027;-79
2024/04/06 05:40:54;;;;;;;0.80;0.80;;;;;;;;;;2044492;28;20070;-79
2024/04/06 05:42:16;;;;;;;0.75;0.75;;;;;;;;;;2042460;28;20512;-79
2024/04/06 05:43:35;;;;;;;0.73;0.73;;;;;;;;;;2040329;28;20036;-79
2024/04/06 05:44:54;;;;;;;0.80;0.80;;;;;;;;;;2040266;28;20036;-79
2024/04/06 05:46:13;;;;;;;1.42;0.90;;;;;;;;;;2041429;28;20428;-79
2024/04/06 05:47:32;;;;;;;0.80;0.80;;;;;;;;;;2048656;28;20129;-80
2024/04/06 05:48:51;;;;;;;0.80;0.80;;;;;;;;;;2051716;28;20031;-80
2024/04/06 05:50:12;;;;;;;0.70;0.70;;;;;;;;;;2043164;28;20031;-79
2024/04/06 05:51:30;;;;;;;0.65;0.65;;;;;;;;;;2044268;28;20027;-80
2024/04/06 05:52:50;;;;;;;0.60;0.60;;;;;;;;;;2049786;28;20046;-79
2024/04/06 05:54:09;;;;;;;0.65;0.65;;;;;;;;;;2053853;28;20026;-80
2024/04/06 05:55:28;;;;;;;1.58;0.60;;;;;;;;;;2043898;28;20076;-79
2024/04/06 05:56:46;;;;;;;1.00;0.70;;;;;;;;;;2049324;28;20035;-79
2024/04/06 05:58:05;;;;;;;1.55;0.40;;;;;;;;;;2053354;28;20031;-79
2024/04/06 05:59:27;;;;;;;0.43;0.43;;;;;;;;;;2051464;28;20050;-79
2024/04/06 06:00:47;;;;;;;0.52;0.50;;;;;;;;;;2044316;28;20070;-80
2024/04/06 06:02:06;;;;;;;0.40;0.40;;;;;;;;;;2050071;28;20026;-79
2024/04/06 06:03:26;;;;;;;0.50;0.50;;;;;;;;;;2053564;28;20030;-79
2024/04/06 06:04:44;;;;;;;0.50;0.50;;;;;;;;;;2051701;28;20027;-79
2024/04/06 06:06:04;;;;;;;0.70;0.70;;;;;;;;;;2042590;28;20023;-79
2024/04/06 06:07:23;;;;;;;0.70;0.70;;;;;;;;;;2049203;28;20027;-80
2024/04/06 06:08:42;;;;;;;1.92;0.60;;;;;;;;;;2044712;28;20123;-79
2024/04/06 06:10:03;;;;;;;0.85;0.60;;;;;;;;;;2051624;28;20031;-79
2024/04/06 06:11:21;;;;;;;0.60;0.60;;;;;;;;;;2047341;28;20047;-79
2024/04/06 06:12:40;;;;;;;0.80;0.70;;;;;;;;;;2044950;28;20114;-80
2024/04/06 06:14:01;;;;;;;0.80;0.70;;;;;;;;;;2044852;28;20043;-80
2024/04/06 06:15:22;;;;;;;2.95;0.70;;;;;;;;;;2044912;28;20097;-80
2024/04/06 06:16:41;;;;;;;0.52;0.52;;;;;;;;;;2044159;28;20504;-80
2024/04/06 06:18:00;;;;;;;0.47;0.47;;;;;;;;;;2048704;28;20043;-79
2024/04/06 06:19:19;;;;;;;0.55;0.55;;;;;;;;;;2043299;28;20039;-79
2024/04/06 06:20:41;;;;;;;0.50;0.50;;;;;;;;;;2042494;28;20071;-80
2024/04/06 06:22:00;;;;;;;0.60;0.50;;;;;;;;;;2042933;28;20023;-81
2024/04/06 06:23:18;;;;;;;0.80;0.80;;;;;;;;;;2049112;28;20031;-80
2024/04/06 06:24:38;;;;;;;0.90;0.90;;;;;;;;;;2043931;28;20114;-81
2024/04/06 06:25:57;;;;;;;0.70;0.70;;;;;;;;;;2048783;28;20031;-80
2024/04/06 06:27:16;;;;;;;1.42;0.60;;;;;;;;;;2043146;28;20031;-80
2024/04/06 06:28:35;;;;;;;0.70;0.70;;;;;;;;;;2048277;28;20031;-79
2024/04/06 06:29:54;;;;;;;0.63;0.63;;;;;;;;;;2043107;28;20031;-80
2024/04/06 06:31:13;;;;;;;0.82;0.82;;;;;;;;;;2042224;28;20035;-79
2024/04/06 06:32:32;;;;;;;0.65;0.65;;;;;;;;;;2043232;28;20522;-79
2024/04/06 06:33:53;;;;;;;0.90;0.90;;;;;;;;;;2048436;28;20042;-80
2024/04/06 06:35:12;;;;;;;0.80;0.80;;;;;;;;;;2042470;28;20028;-80
2024/04/06 06:36:32;;;;;;;0.68;0.68;;;;;;;;;;2049031;28;20046;-80
2024/04/06 06:37:52;;;;;;;0.70;0.70;;;;;;;;;;2042604;28;20023;-80
2024/04/06 06:39:11;;;;;;;2.53;0.77;;;;;;;;;;2040292;28;20115;-79
2024/04/06 06:40:30;;;;;;;0.82;0.82;;;;;;;;;;2042926;28;20027;-79
2024/04/06 06:41:51;;;;;;;0.60;0.60;;;;;;;;;;2050029;28;20027;-81
2024/04/06 06:43:10;;;;;;;0.68;0.68;;;;;;;;;;2043175;28;20031;-78
2024/04/06 06:44:29;;;;;;;0.70;0.70;;;;;;;;;;2042889;28;20047;-80
2024/04/06 06:45:48;;;;;;;1.00;0.68;;;;;;;;;;2054736;28;20476;-81
2024/04/06 06:47:07;;;;;;;0.75;0.75;;;;;;;;;;2052858;28;20059;-81
2024/04/06 06:48:26;;;;;;;1.75;0.93;;;;;;;;;;2057779;28;20038;-81
2024/04/06 06:49:48;;;;;;;0.65;0.65;;;;;;;;;;2055759;28;20036;-81
2024/04/06 06:51:08;;;;;;;0.80;0.80;;;;;;;;;;2058104;28;20023;-83
2024/04/06 06:52:28;;;;;;;0.65;0.65;;;;;;;;;;2050190;28;20039;-82
2024/04/06 06:53:47;;;;;;;2.15;0.88;;;;;;;;;;2053407;28;20094;-84
2024/04/06 06:55:06;;;;;;;1.00;0.70;;;;;;;;;;2049704;28;20035;-82
2024/04/06 06:56:25;;;;;;;0.80;0.80;;;;;;;;;;2046232;28;20031;-81
2024/04/06 06:57:47;;;;;;;0.75;0.75;;;;;;;;;;2043325;28;20027;-83
2024/04/06 06:59:06;;;;;;;0.90;0.90;;;;;;;;;;2045898;28;20118;-81
2024/04/06 07:00:25;;;;;;;0.95;0.95;;;;;;;;;;2045648;28;20027;-83
2024/04/06 07:01:44;;;;;;;1.15;1.13;;;;;;;;;;2046833;28;20481;-82
2024/04/06 07:03:04;;;;;;;1.63;0.98;;;;;;;;;;2049015;28;20035;-81
2024/04/06 07:04:24;;;;;;;0.90;0.90;;;;;;;;;;2054118;28;20019;-84
2024/04/06 07:05:43;;;;;;;0.90;0.90;;;;;;;;;;2052063;28;20094;-80
2024/04/06 07:07:02;;;;;;;1.67;1.00;;;;;;;;;;2052208;28;20505;-84
2024/04/06 07:08:21;;;;;;;0.98;0.98;;;;;;;;;;2045240;28;20047;-79
2024/04/06 07:09:40;;;;;;;0.82;0.82;;;;;;;;;;2044604;28;20586;-78
2024/04/06 07:11:05;;;;;;;0.85;0.85;;;;;;;;;;2049006;28;20476;-80
2024/04/06 07:12:24;;;;;;;0.88;0.88;;;;;;;;;;2044239;28;20111;-79
2024/04/06 07:13:43;;;;;;;1.60;1.08;;;;;;;;;;2049006;28;20117;-78
2024/04/06 07:15:04;;;;;;;0.88;0.88;;;;;;;;;;2053137;28;20121;-78
2024/04/06 07:16:25;;;;;;;1.00;1.00;;;;;;;;;;2043326;28;20436;-78
2024/04/06 07:17:44;;;;;;;1.77;1.27;;;;;;;;;;2049557;28;20042;-79
2024/04/06 07:19:03;;;;;;;2.33;1.33;;;;;;;;;;2044867;28;20055;-79
2024/04/06 07:20:22;;;;;;;1.00;1.00;;;;;;;;;;2051400;28;20067;-78
2024/04/06 07:21:41;;;;;;;1.02;0.93;;;;;;;;;;2045139;28;20432;-80
2024/04/06 07:23:00;;;;;;;1.25;1.25;;;;;;;;;;2048814;28;20130;-80
2024/04/06 07:24:21;;;;;;;1.90;1.00;;;;;;;;;;2044715;28;20031;-80
2024/04/06 07:25:40;;;;;;;1.05;1.02;;;;;;;;;;2044726;28;20028;-80
2024/04/06 07:26:58;;;;;;;0.98;0.98;;;;;;;;;;2041628;28;20035;-80
2024/04/06 07:28:19;;;;;;;0.90;0.90;;;;;;;;;;2048942;28;20023;-81
2024/04/06 07:29:40;;;;;;;0.63;0.63;;;;;;;;;;2052475;28;20117;-79
2024/04/06 07:30:59;;;;;;;0.88;0.88;;;;;;;;;;2044715;28;20035;-79
2024/04/06 07:32:18;;;;;;;5.88;0.95;;;;;;;;;;2042049;28;20028;-78
2024/04/06 07:33:38;;;;;;;1.10;1.10;;;;;;;;;;2047683;28;20151;-79
2024/04/06 07:34:56;;;;;;;0.73;0.73;;;;;;;;;;2053189;28;20503;-79
2024/04/06 07:36:15;;;;;;;0.70;0.70;;;;;;;;;;2044785;28;20122;-79
2024/04/06 07:37:34;;;;;;;0.77;0.70;;;;;;;;;;2046801;28;20040;-78
2024/04/06 07:38:53;;;;;;;0.60;0.60;;;;;;;;;;2050369;28;20074;-78
2024/04/06 07:40:12;;;;;;;0.70;0.70;;;;;;;;;;2045770;28;20110;-79
2024/04/06 07:41:31;;;;;;;0.80;0.80;;;;;;;;;;2051127;28;20054;-79
2024/04/06 07:42:51;;;;;;;0.75;0.75;;;;;;;;;;2045816;28;20019;-78
2024/04/06 07:44:10;;;;;;;0.50;0.50;;;;;;;;;;2045394;28;20039;-79
2024/04/06 07:45:30;;;;;;;0.65;0.65;;;;;;;;;;2042599;28;20114;-80
2024/04/06 07:46:49;;;;;;;0.50;0.50;;;;;;;;;;2052110;28;20031;-79
2024/04/06 07:48:08;;;;;;;1.10;0.73;;;;;;;;;;2043892;28;20031;-79
2024/04/06 07:49:28;;;;;;;1.00;1.00;;;;;;;;;;2047796;28;20039;-79
2024/04/06 07:50:47;;;;;;;0.88;0.88;;;;;;;;;;2052677;28;20038;-78
2024/04/06 07:52:06;;;;;;;0.63;0.63;;;;;;;;;;2053621;28;20042;-78
2024/04/06 07:53:25;;;;;;;0.60;0.60;;;;;;;;;;2044087;28;20039;-78
2024/04/06 07:54:44;;;;;;;0.65;0.65;;;;;;;;;;2048621;28;20440;-79
2024/04/06 07:56:03;;;;;;;0.60;0.60;;;;;;;;;;2052336;28;20038;-78